Time;durP1;ratioP1;P1;durP2;ratioP2;P2;SDS_P1;SDS_P2;PMS_P1;PMS_P2;Temp;Humidity;BMP_temperature;BMP_pressure;BME280_temperature;BME280_humidity;BME280_pressure;Samples;Min_cycle;Max_cycle;Signal;HPM_P1;HPM_P2
2022/11/28 00:00:27;;;;;;;16.90;10.45;;;6.70;99.90;;;;;;5044653;28;20552;-65
2022/11/28 00:02:53;;;;;;;16.52;10.38;;;6.80;99.90;;;;;;5039624;28;20056;-65
2022/11/28 00:05:18;;;;;;;20.00;10.93;;;6.70;99.90;;;;;;5053672;28;20487;-65
2022/11/28 00:07:44;;;;;;;17.52;11.40;;;6.60;99.90;;;;;;5052142;28;20558;-65
2022/11/28 00:10:10;;;;;;;15.50;10.30;;;6.70;99.90;;;;;;5041231;28;20056;-65
2022/11/28 00:12:36;;;;;;;16.30;10.35;;;6.70;99.90;;;;;;5039393;28;20500;-65
2022/11/28 00:15:03;;;;;;;18.38;10.73;;;6.70;99.90;;;;;;5033269;28;20044;-65
2022/11/28 00:17:29;;;;;;;18.75;10.95;;;6.70;99.90;;;;;;5033411;28;20045;-65
2022/11/28 00:19:54;;;;;;;17.35;10.10;;;6.90;99.90;;;;;;5046114;28;20053;-65
2022/11/28 00:22:20;;;;;;;17.38;10.68;;;6.80;99.90;;;;;;5042651;28;20037;-65
2022/11/28 00:24:45;;;;;;;18.73;10.07;;;6.60;99.90;;;;;;5050708;28;20075;-65
2022/11/28 00:27:11;;;;;;;18.58;10.73;;;6.60;99.90;;;;;;5033232;28;20045;-65
2022/11/28 00:29:38;;;;;;;17.88;10.85;;;6.70;99.90;;;;;;5046596;28;20048;-65
2022/11/28 00:32:04;;;;;;;16.00;9.23;;;6.80;99.90;;;;;;5037934;28;20037;-65
2022/11/28 00:34:30;;;;;;;16.98;10.45;;;7.00;99.90;;;;;;5051651;28;20045;-65
2022/11/28 00:36:55;;;;;;;18.17;9.43;;;6.90;99.90;;;;;;5053005;28;20498;-65
2022/11/28 00:39:21;;;;;;;16.83;11.00;;;6.80;99.90;;;;;;5051835;28;20040;-65
2022/11/28 00:41:47;;;;;;;13.00;8.98;;;6.90;99.90;;;;;;5050323;28;20068;-66
2022/11/28 00:44:12;;;;;;;15.02;9.65;;;6.80;99.90;;;;;;5050117;28;20041;-65
2022/11/28 00:46:39;;;;;;;13.65;9.32;;;6.80;99.90;;;;;;5052798;28;20053;-65
2022/11/28 00:49:04;;;;;;;14.27;9.45;;;6.70;99.90;;;;;;5037475;28;20045;-65
2022/11/28 00:51:32;;;;;;;17.33;9.20;;;7.00;99.90;;;;;;5045628;28;20038;-65
2022/11/28 00:54:00;;;;;;;17.05;10.32;;;7.00;99.90;;;;;;5046617;28;20037;-65
2022/11/28 00:56:29;;;;;;;14.38;9.45;;;6.80;99.90;;;;;;5052550;28;20119;-65
2022/11/28 00:58:55;;;;;;;14.98;10.30;;;6.70;99.90;;;;;;5053007;28;20119;-65
2022/11/28 01:01:24;;;;;;;15.63;10.18;;;6.70;99.90;;;;;;5038855;28;20124;-65
2022/11/28 01:03:51;;;;;;;11.30;8.13;;;6.80;99.90;;;;;;5052853;28;20044;-65
2022/11/28 01:06:29;;;;;;;18.25;11.05;;;6.70;99.90;;;;;;5031750;28;20045;-65
2022/11/28 01:09:00;;;;;;;16.23;10.32;;;6.90;99.90;;;;;;5042144;28;20037;-65
2022/11/28 01:11:27;;;;;;;15.38;9.88;;;6.70;99.90;;;;;;5047967;28;20079;-66
2022/11/28 01:13:54;;;;;;;12.52;9.80;;;6.80;99.90;;;;;;5032769;28;20094;-65
2022/11/28 01:16:20;;;;;;;15.75;9.85;;;6.80;99.90;;;;;;5045746;28;20102;-65
2022/11/28 01:18:46;;;;;;;16.05;10.43;;;6.80;99.90;;;;;;5032932;28;20132;-65
2022/11/28 01:21:11;;;;;;;17.30;10.85;;;6.70;99.90;;;;;;5032665;28;20056;-65
2022/11/28 01:23:37;;;;;;;17.92;10.75;;;6.80;99.90;;;;;;5050949;28;20045;-65
2022/11/28 01:26:05;;;;;;;16.40;9.32;;;6.80;99.90;;;;;;5052365;28;20041;-65
2022/11/28 01:28:32;;;;;;;22.73;11.52;;;6.80;99.90;;;;;;5052665;28;20545;-65
2022/11/28 01:31:02;;;;;;;23.35;12.45;;;;;;;;;;5042575;28;20192;-65
2022/11/28 01:33:27;;;;;;;19.25;12.82;;;6.70;99.90;;;;;;5048083;28;20044;-65
2022/11/28 01:35:54;;;;;;;18.05;11.75;;;6.70;99.90;;;;;;5052377;28;20037;-65
2022/11/28 01:38:20;;;;;;;22.45;12.68;;;6.80;99.90;;;;;;5052361;28;20037;-65
2022/11/28 01:40:46;;;;;;;22.27;13.43;;;6.70;99.90;;;;;;5051169;28;20045;-65
2022/11/28 01:43:11;;;;;;;25.13;14.13;;;6.70;99.90;;;;;;5038186;28;20407;-65
2022/11/28 01:45:39;;;;;;;25.58;14.75;;;6.70;99.90;;;;;;5033256;28;20034;-65
2022/11/28 01:48:07;;;;;;;21.90;14.80;;;6.70;99.90;;;;;;5056006;28;20107;-65
2022/11/28 01:50:34;;;;;;;24.15;14.27;;;6.70;99.90;;;;;;5042781;28;20041;-65
2022/11/28 01:53:05;;;;;;;27.77;15.43;;;6.70;99.90;;;;;;5041753;28;20111;-65
2022/11/28 01:55:34;;;;;;;26.10;16.33;;;6.50;99.90;;;;;;5055002;28;20037;-65
2022/11/28 01:58:00;;;;;;;21.80;14.95;;;6.70;99.90;;;;;;5055922;28;20041;-65
2022/11/28 02:00:26;;;;;;;25.60;16.23;;;6.60;99.90;;;;;;5056054;28;20036;-65
2022/11/28 02:02:59;;;;;;;27.85;16.67;;;6.80;99.90;;;;;;5041758;28;20518;-65
2022/11/28 02:05:25;;;;;;;31.60;16.17;;;6.70;99.90;;;;;;5045969;28;20041;-65
2022/11/28 02:07:51;;;;;;;26.95;16.02;;;6.70;99.90;;;;;;5034981;28;20045;-65
2022/11/28 02:10:22;;;;;;;26.75;15.60;;;6.80;99.90;;;;;;5055652;28;20099;-65
2022/11/28 02:13:12;;;;;;;27.90;15.98;;;6.80;99.90;;;;;;5041798;28;20045;-65
2022/11/28 02:15:57;;;;;;;26.35;16.55;;;6.60;99.90;;;;;;5054378;28;20040;-65
2022/11/28 02:18:56;;;;;;;22.70;14.27;;;6.70;99.90;;;;;;5055479;28;20041;-65
2022/11/28 02:21:41;;;;;;;26.80;16.50;;;6.90;99.90;;;;;;5034426;28;20499;-65
2022/11/28 02:24:36;;;;;;;23.92;15.70;;;6.70;99.90;;;;;;5053848;28;20052;-65
2022/11/28 02:27:17;;;;;;;24.42;15.27;;;7.00;99.90;;;;;;5054078;28;20507;-65
2022/11/28 02:29:51;;;;;;;20.40;12.35;;;7.00;99.90;;;;;;5041518;28;20052;-65
2022/11/28 02:32:31;;;;;;;20.33;13.17;;;6.90;99.90;;;;;;5042487;28;20029;-65
2022/11/28 02:35:06;;;;;;;21.63;14.23;;;7.00;99.90;;;;;;5053772;28;20052;-65
2022/11/28 02:38:08;;;;;;;25.00;13.82;;;6.90;99.90;;;;;;5047295;28;20042;-65
2022/11/28 02:40:56;;;;;;;26.75;14.70;;;6.80;99.90;;;;;;5053172;28;20410;-65
2022/11/28 02:43:36;;;;;;;31.05;16.30;;;6.80;99.90;;;;;;5053850;28;20449;-65
2022/11/28 02:46:23;;;;;;;25.08;15.18;;;6.80;99.90;;;;;;5053594;28;20045;-65
2022/11/28 02:48:54;;;;;;;24.13;16.13;;;6.90;99.90;;;;;;5040740;28;20115;-65
2022/11/28 02:51:36;;;;;;;27.67;17.17;;;6.90;99.90;;;;;;5040878;28;20080;-65
2022/11/28 02:54:04;;;;;;;29.27;16.80;;;6.90;99.90;;;;;;5040973;28;20088;-65
2022/11/28 02:56:29;;;;;;;27.88;16.75;;;6.70;99.90;;;;;;5041249;28;20029;-65
2022/11/28 02:58:55;;;;;;;28.55;17.48;;;7.00;99.90;;;;;;5042396;28;20113;-65
2022/11/28 03:01:32;;;;;;;28.90;17.70;;;6.90;99.90;;;;;;5052267;28;20140;-65
2022/11/28 03:04:12;;;;;;;27.33;18.45;;;;;;;;;;5054759;28;20392;-65
2022/11/28 03:06:57;;;;;;;31.58;18.48;;;7.10;99.90;;;;;;5053343;28;20051;-65
2022/11/28 03:09:34;;;;;;;28.27;17.40;;;7.00;99.90;;;;;;5041486;28;20081;-65
2022/11/28 03:12:08;;;;;;;30.92;17.88;;;7.10;99.90;;;;;;5046620;28;20045;-65
2022/11/28 03:14:54;;;;;;;32.38;21.60;;;7.10;99.90;;;;;;5048680;28;20033;-65
2022/11/28 03:17:51;;;;;;;28.00;17.58;;;7.10;99.90;;;;;;5044644;28;20045;-65
2022/11/28 03:20:47;;;;;;;33.10;20.30;;;6.90;99.90;;;;;;5054675;28;20044;-65
2022/11/28 03:23:17;;;;;;;32.85;18.67;;;7.10;99.90;;;;;;5036670;28;20049;-65
2022/11/28 03:25:58;;;;;;;30.42;19.58;;;7.20;99.90;;;;;;5041988;28;20043;-65
2022/11/28 03:28:30;;;;;;;33.92;20.13;;;7.20;99.90;;;;;;5040357;28;20115;-65
2022/11/28 03:31:02;;;;;;;35.55;21.15;;;;;;;;;;5043155;28;20037;-65
2022/11/28 03:33:32;;;;;;;32.42;18.88;;;7.10;99.90;;;;;;5050857;28;20048;-65
2022/11/28 03:36:04;;;;;;;35.00;20.02;;;7.20;99.90;;;;;;5054332;28;20041;-65
2022/11/28 03:38:37;;;;;;;32.88;20.30;;;7.20;99.90;;;;;;5040260;28;20053;-65
2022/11/28 03:41:11;;;;;;;33.95;21.17;;;7.30;99.90;;;;;;5044473;28;20041;-65
2022/11/28 03:43:43;;;;;;;31.63;20.77;;;7.10;99.90;;;;;;5053912;28;20037;-65
2022/11/28 03:46:14;;;;;;;30.85;20.30;;;7.30;99.90;;;;;;5033666;28;20060;-65
2022/11/28 03:48:46;;;;;;;36.42;21.48;;;;;;;;;;5040288;28;20049;-65
2022/11/28 03:51:16;;;;;;;33.35;20.35;;;7.40;99.90;;;;;;5053859;28;20122;-65
2022/11/28 03:53:49;;;;;;;32.17;20.73;;;7.40;99.90;;;;;;5053699;28;20432;-65
2022/11/28 03:56:23;;;;;;;32.08;19.58;;;7.40;99.90;;;;;;5053499;28;20048;-65
2022/11/28 03:58:57;;;;;;;28.63;18.33;;;7.40;99.90;;;;;;5052322;28;20036;-65
2022/11/28 04:01:52;;;;;;;29.85;17.52;;;7.70;99.90;;;;;;5052613;28;20063;-65
2022/11/28 04:04:29;;;;;;;30.83;19.00;;;7.50;99.90;;;;;;5033717;28;20037;-65
2022/11/28 04:07:10;;;;;;;32.15;19.13;;;7.40;99.90;;;;;;5032234;28;20065;-65
2022/11/28 04:09:52;;;;;;;32.75;18.65;;;7.60;99.90;;;;;;5037697;28;20446;-65
2022/11/28 04:12:53;;;;;;;34.95;19.83;;;7.50;99.90;;;;;;5033328;28;20033;-65
2022/11/28 04:15:32;;;;;;;31.08;19.25;;;7.50;99.90;;;;;;5045963;28;20476;-65
2022/11/28 04:18:18;;;;;;;31.23;19.30;;;7.50;99.90;;;;;;5032384;28;20057;-65
2022/11/28 04:20:51;;;;;;;28.67;17.48;;;7.70;99.90;;;;;;5032118;28;20449;-65
2022/11/28 04:23:19;;;;;;;30.00;18.88;;;;;;;;;;5042856;28;20063;-65
2022/11/28 04:25:51;;;;;;;30.52;20.30;;;7.60;99.90;;;;;;5049295;28;20050;-65
2022/11/28 04:28:21;;;;;;;32.97;18.65;;;7.60;99.90;;;;;;5033282;28;20048;-65
2022/11/28 04:30:49;;;;;;;27.60;17.83;;;7.60;99.90;;;;;;5048106;28;20091;-66
2022/11/28 04:33:19;;;;;;;27.25;18.10;;;7.70;99.90;;;;;;5051834;28;20068;-65
2022/11/28 04:35:49;;;;;;;30.80;19.30;;;7.70;99.90;;;;;;5036529;28;20048;-65
2022/11/28 04:38:15;;;;;;;31.95;20.05;;;7.70;99.90;;;;;;5033051;28;20041;-65
2022/11/28 04:40:53;;;;;;;28.98;18.85;;;7.50;99.90;;;;;;5033326;28;20049;-65
2022/11/28 04:43:38;;;;;;;36.00;19.80;;;7.80;99.90;;;;;;5031750;28;20041;-65
2022/11/28 04:46:09;;;;;;;30.15;19.67;;;7.70;99.90;;;;;;5031393;28;20049;-65
2022/11/28 04:48:34;;;;;;;36.08;18.45;;;7.80;99.90;;;;;;5041568;28;20052;-65
2022/11/28 04:51:25;;;;;;;31.08;19.73;;;7.60;99.90;;;;;;5038019;28;20037;-65
2022/11/28 04:54:31;;;;;;;29.02;18.13;;;7.90;99.90;;;;;;5032954;28;20561;-65
2022/11/28 04:57:11;;;;;;;28.98;17.50;;;7.70;99.90;;;;;;5038152;28;20043;-65
2022/11/28 04:59:38;;;;;;;30.63;17.45;;;7.80;99.90;;;;;;5051527;28;20566;-65
2022/11/28 05:02:05;;;;;;;32.75;17.88;;;7.80;99.90;;;;;;5052717;28;20380;-65
2022/11/28 05:04:34;;;;;;;28.63;17.50;;;7.80;99.90;;;;;;5051623;28;20041;-65
2022/11/28 05:07:05;;;;;;;27.52;16.27;;;8.10;99.90;;;;;;5051238;28;20052;-65
2022/11/28 05:09:31;;;;;;;28.70;17.27;;;7.80;99.90;;;;;;5048423;28;20052;-65
2022/11/28 05:11:56;;;;;;;29.25;18.27;;;7.80;99.90;;;;;;5038661;28;20029;-65
2022/11/28 05:14:22;;;;;;;25.27;16.92;;;7.70;99.90;;;;;;5051646;28;20226;-65
2022/11/28 05:16:48;;;;;;;24.13;15.18;;;;;;;;;;5053207;28;20501;-65
2022/11/28 05:19:14;;;;;;;23.67;16.10;;;7.80;99.90;;;;;;5031480;28;20077;-65
2022/11/28 05:21:40;;;;;;;24.00;15.25;;;7.90;99.90;;;;;;5050122;28;20132;-65
2022/11/28 05:24:06;;;;;;;22.48;15.25;;;;;;;;;;5055233;28;20146;-65
2022/11/28 05:26:34;;;;;;;26.73;15.85;;;7.90;99.90;;;;;;5055646;28;20045;-65
2022/11/28 05:29:00;;;;;;;23.98;15.60;;;7.90;99.90;;;;;;5051908;28;20422;-65
2022/11/28 05:31:26;;;;;;;26.30;17.10;;;7.90;99.90;;;;;;5047188;28;20128;-65
2022/11/28 05:33:53;;;;;;;27.25;16.70;;;8.00;99.90;;;;;;5052657;28;20055;-65
2022/11/28 05:36:19;;;;;;;22.25;14.85;;;8.00;99.90;;;;;;5035351;28;20472;-65
2022/11/28 05:38:44;;;;;;;24.95;15.50;;;8.00;99.90;;;;;;5049810;28;20087;-65
2022/11/28 05:41:18;;;;;;;28.70;16.50;;;8.00;99.90;;;;;;5056457;28;20047;-65
2022/11/28 05:43:44;;;;;;;25.10;16.48;;;8.00;99.90;;;;;;5055309;28;20048;-65
2022/11/28 05:46:09;;;;;;;25.20;15.48;;;8.00;99.90;;;;;;5054870;28;20049;-65
2022/11/28 05:48:35;;;;;;;26.63;17.17;;;7.90;99.90;;;;;;5054812;28;20055;-65
2022/11/28 05:51:03;;;;;;;26.40;17.30;;;;;;;;;;5056178;28;20487;-65
2022/11/28 05:53:28;;;;;;;29.13;16.70;;;8.20;99.90;;;;;;5042159;28;20033;-65
2022/11/28 05:55:54;;;;;;;26.15;16.92;;;7.80;99.90;;;;;;5055986;28;20079;-65
2022/11/28 05:58:19;;;;;;;29.17;17.05;;;8.10;99.90;;;;;;5056044;28;20041;-65
2022/11/28 06:00:45;;;;;;;27.15;16.35;;;7.70;99.90;;;;;;5055922;28;20066;-65
2022/11/28 06:03:10;;;;;;;25.70;16.45;;;8.00;99.90;;;;;;5053837;28;20077;-65
2022/11/28 06:05:39;;;;;;;30.77;18.00;;;8.00;99.90;;;;;;5035935;28;20045;-65
2022/11/28 06:08:05;;;;;;;34.20;17.52;;;8.00;99.90;;;;;;5045634;28;20100;-65
2022/11/28 06:10:31;;;;;;;29.02;17.00;;;8.00;99.90;;;;;;5049449;28;20499;-65
2022/11/28 06:12:56;;;;;;;27.65;15.88;;;8.10;99.90;;;;;;5036092;28;20450;-65
2022/11/28 06:15:22;;;;;;;27.10;15.52;;;8.10;99.90;;;;;;5048638;28;20076;-65
2022/11/28 06:17:47;;;;;;;27.90;16.63;;;8.10;99.90;;;;;;5035655;28;20074;-65
2022/11/28 06:20:13;;;;;;;28.98;16.08;;;8.00;99.90;;;;;;5050721;28;20036;-65
2022/11/28 06:22:38;;;;;;;25.30;15.63;;;8.00;99.90;;;;;;5046284;28;20128;-65
2022/11/28 06:25:04;;;;;;;30.70;16.52;;;7.80;99.90;;;;;;5035246;28;20048;-65
2022/11/28 06:27:30;;;;;;;25.92;15.35;;;8.00;99.90;;;;;;5034191;28;20112;-65
2022/11/28 06:29:55;;;;;;;27.02;16.17;;;8.00;99.90;;;;;;5035535;28;20041;-65
2022/11/28 06:32:21;;;;;;;29.55;15.68;;;7.90;99.90;;;;;;5034459;28;20037;-65
2022/11/28 06:34:46;;;;;;;26.05;15.57;;;8.10;99.90;;;;;;5045486;28;20051;-65
2022/11/28 06:37:12;;;;;;;28.17;15.50;;;;;;;;;;5051544;28;20041;-65
2022/11/28 06:39:38;;;;;;;25.65;15.52;;;8.00;99.90;;;;;;5042159;28;20051;-65
2022/11/28 06:42:04;;;;;;;24.73;15.07;;;;;;;;;;5023314;28;20052;-66
2022/11/28 06:44:29;;;;;;;26.13;14.55;;;8.20;99.90;;;;;;5055334;28;20032;-65
2022/11/28 06:46:55;;;;;;;25.10;15.35;;;;;;;;;;5042624;28;20049;-65
2022/11/28 06:49:21;;;;;;;26.17;15.20;;;;;;;;;;5048977;28;20094;-65
2022/11/28 06:51:47;;;;;;;24.08;14.02;;;8.00;99.90;;;;;;5053792;28;20048;-65
2022/11/28 06:54:12;;;;;;;24.75;13.48;;;8.10;99.90;;;;;;5041556;28;20042;-65
2022/11/28 06:56:39;;;;;;;22.45;14.43;;;8.10;99.90;;;;;;5033795;28;20029;-65
2022/11/28 06:59:05;;;;;;;23.83;15.10;;;8.10;99.90;;;;;;5045246;28;20037;-65
2022/11/28 07:01:33;;;;;;;25.27;14.82;;;8.00;99.90;;;;;;5052609;28;20094;-65
2022/11/28 07:03:58;;;;;;;28.67;14.73;;;8.10;99.90;;;;;;5034895;28;20045;-65
2022/11/28 07:06:25;;;;;;;22.00;13.77;;;8.10;99.90;;;;;;5034674;28;20053;-66
2022/11/28 07:08:52;;;;;;;24.85;14.88;;;;;;;;;;5044641;28;20037;-65
2022/11/28 07:11:25;;;;;;;24.48;14.00;;;8.20;99.90;;;;;;5054738;28;20044;-65
2022/11/28 07:13:51;;;;;;;27.02;14.88;;;8.10;99.90;;;;;;5051350;28;20098;-65
2022/11/28 07:16:22;;;;;;;28.02;14.35;;;8.20;99.90;;;;;;5034220;28;20547;-65
2022/11/28 07:18:48;;;;;;;22.70;14.10;;;8.10;99.90;;;;;;5033227;28;20045;-65
2022/11/28 07:21:14;;;;;;;18.77;12.45;;;8.20;99.90;;;;;;5034291;28;20045;-65
2022/11/28 07:23:41;;;;;;;23.67;14.02;;;;;;;;;;5034211;28;20446;-65
2022/11/28 07:26:07;;;;;;;22.35;14.48;;;8.10;99.90;;;;;;5034171;28;20503;-65
2022/11/28 07:28:33;;;;;;;20.35;13.20;;;8.10;99.90;;;;;;5033109;28;20048;-66
2022/11/28 07:31:09;;;;;;;21.23;13.93;;;7.90;99.90;;;;;;5034487;28;20033;-63
2022/11/28 07:33:36;;;;;;;19.05;12.93;;;8.20;99.90;;;;;;5056820;28;20487;-63
2022/11/28 07:36:04;;;;;;;23.10;13.25;;;8.10;99.90;;;;;;5050458;28;20040;-64
2022/11/28 07:38:31;;;;;;;20.58;13.38;;;;;;;;;;5045122;28;20046;-65
2022/11/28 07:41:04;;;;;;;20.98;13.15;;;8.20;99.90;;;;;;5044128;28;20499;-64
2022/11/28 07:43:29;;;;;;;22.63;13.38;;;8.10;99.90;;;;;;5032938;28;20041;-64
2022/11/28 07:45:55;;;;;;;17.20;13.05;;;8.00;99.90;;;;;;5036206;28;20049;-64
2022/11/28 07:48:21;;;;;;;21.27;12.43;;;8.00;99.90;;;;;;5047123;28;20071;-64
2022/11/28 07:50:46;;;;;;;17.13;12.85;;;8.20;99.90;;;;;;5049598;28;20044;-66
2022/11/28 07:53:12;;;;;;;17.17;12.27;;;8.20;99.90;;;;;;5050642;28;20051;-65
2022/11/28 07:55:37;;;;;;;19.17;12.15;;;8.20;99.90;;;;;;5052015;28;20124;-65
2022/11/28 07:58:03;;;;;;;16.77;11.77;;;8.10;99.90;;;;;;5052134;28;20123;-65
2022/11/28 08:00:29;;;;;;;18.48;12.57;;;8.20;99.90;;;;;;5050700;28;20060;-64
2022/11/28 08:02:54;;;;;;;21.08;11.77;;;8.20;99.90;;;;;;5050193;28;20033;-65
2022/11/28 08:05:20;;;;;;;16.13;11.65;;;8.30;99.90;;;;;;5048653;28;20032;-65
2022/11/28 08:07:49;;;;;;;17.13;11.50;;;8.20;99.90;;;;;;5052214;28;20075;-65
2022/11/28 08:10:15;;;;;;;15.15;10.55;;;8.20;99.90;;;;;;5045685;28;20065;-64
2022/11/28 08:12:41;;;;;;;15.77;10.90;;;8.10;99.90;;;;;;5047701;28;20033;-64
2022/11/28 08:15:07;;;;;;;17.30;11.00;;;8.10;99.90;;;;;;5048503;28;20040;-65
2022/11/28 08:17:33;;;;;;;16.55;10.88;;;8.10;99.90;;;;;;5050159;28;20430;-64
2022/11/28 08:20:00;;;;;;;15.77;11.45;;;8.20;99.90;;;;;;5050201;28;20112;-64
2022/11/28 08:22:25;;;;;;;16.00;10.95;;;8.20;99.90;;;;;;5049201;28;20044;-64
2022/11/28 08:24:51;;;;;;;13.18;9.98;;;8.10;99.90;;;;;;5050847;28;20033;-64
2022/11/28 08:27:16;;;;;;;13.65;9.88;;;8.20;99.90;;;;;;5047289;28;20435;-64
2022/11/28 08:29:42;;;;;;;13.38;9.77;;;8.20;99.90;;;;;;5049099;28;20506;-66
2022/11/28 08:32:07;;;;;;;12.73;9.45;;;8.20;99.90;;;;;;5052029;28;20391;-66
2022/11/28 08:34:33;;;;;;;15.23;10.60;;;8.10;99.90;;;;;;5044104;28;20037;-66
2022/11/28 08:36:59;;;;;;;14.43;10.68;;;8.40;99.90;;;;;;5036453;28;20049;-67
2022/11/28 08:39:25;;;;;;;13.30;9.82;;;8.10;99.90;;;;;;5046689;28;20073;-67
2022/11/28 08:41:53;;;;;;;13.40;9.93;;;8.30;99.90;;;;;;5033181;28;20048;-66
2022/11/28 08:44:18;;;;;;;16.13;10.23;;;8.20;99.90;;;;;;5032896;28;20411;-66
2022/11/28 08:46:44;;;;;;;13.05;10.10;;;8.20;99.90;;;;;;5032578;28;20049;-65
2022/11/28 08:49:09;;;;;;;14.25;10.45;;;8.10;99.90;;;;;;5032374;28;20557;-67
2022/11/28 08:51:35;;;;;;;17.42;11.13;;;8.30;99.90;;;;;;5032827;28;20514;-66
2022/11/28 08:54:01;;;;;;;15.52;10.82;;;8.10;99.90;;;;;;5032954;28;20567;-67
2022/11/28 08:56:27;;;;;;;14.75;10.75;;;8.20;99.90;;;;;;5032170;28;20083;-66
2022/11/28 08:58:53;;;;;;;18.38;11.15;;;8.30;99.90;;;;;;5031654;28;20045;-65
2022/11/28 09:01:21;;;;;;;15.98;10.48;;;8.20;99.90;;;;;;5031305;28;20045;-66
2022/11/28 09:03:48;;;;;;;17.63;11.60;;;8.30;99.90;;;;;;5031434;28;20518;-66
2022/11/28 09:06:15;;;;;;;15.10;10.77;;;8.30;99.90;;;;;;5033016;28;20045;-66
2022/11/28 09:08:41;;;;;;;16.52;11.50;;;;;;;;;;5033002;28;20060;-66
2022/11/28 09:11:08;;;;;;;16.42;10.20;;;8.40;99.90;;;;;;5032714;28;20052;-67
2022/11/28 09:13:35;;;;;;;16.67;10.85;;;8.30;99.90;;;;;;5031214;28;20068;-66
2022/11/28 09:16:01;;;;;;;17.17;10.95;;;8.40;99.90;;;;;;5031348;28;20043;-66
2022/11/28 09:18:27;;;;;;;16.35;11.25;;;8.30;99.90;;;;;;5031163;28;20124;-66
2022/11/28 09:21:07;;;;;;;16.63;11.38;;;8.20;99.90;;;;;;5033917;28;20507;-66
2022/11/28 09:23:37;;;;;;;17.13;11.07;;;8.30;99.90;;;;;;5039105;28;20426;-66
2022/11/28 09:26:10;;;;;;;16.02;10.40;;;8.10;99.90;;;;;;5045252;28;20111;-66
2022/11/28 09:28:36;;;;;;;15.80;11.48;;;;;;;;;;5043309;28;20129;-67
2022/11/28 09:31:03;;;;;;;16.65;10.50;;;8.50;99.90;;;;;;5032426;28;20049;-67
2022/11/28 09:33:29;;;;;;;15.35;10.52;;;8.70;99.90;;;;;;5036359;28;20503;-66
2022/11/28 09:35:55;;;;;;;17.45;11.77;;;8.50;99.90;;;;;;5032707;28;20076;-66
2022/11/28 09:38:24;;;;;;;16.42;11.15;;;8.50;99.90;;;;;;5035357;28;20072;-66
2022/11/28 09:40:50;;;;;;;13.77;9.93;;;8.50;99.90;;;;;;5045823;28;20048;-66
2022/11/28 09:43:22;;;;;;;15.20;10.45;;;8.30;99.90;;;;;;5032033;28;20073;-68
2022/11/28 09:45:53;;;;;;;16.13;11.23;;;8.50;99.90;;;;;;5035045;28;20120;-66
2022/11/28 09:48:38;;;;;;;16.48;10.13;;;8.70;99.90;;;;;;5036562;28;20045;-67
2022/11/28 09:51:16;;;;;;;15.95;10.68;;;8.50;99.90;;;;;;5036737;28;20033;-67
2022/11/28 09:53:58;;;;;;;12.50;10.15;;;8.80;99.90;;;;;;5036094;28;20052;-67
2022/11/28 09:56:23;;;;;;;20.98;11.15;;;8.60;99.90;;;;;;5026302;28;20033;-65
2022/11/28 09:58:56;;;;;;;19.42;12.40;;;8.60;99.90;;;;;;5034706;28;20063;-65
2022/11/28 10:01:39;;;;;;;14.95;10.68;;;8.30;99.90;;;;;;5032505;28;20045;-62
2022/11/28 10:04:09;;;;;;;15.45;10.32;;;;;;;;;;5031112;28;20099;-65
2022/11/28 10:06:50;;;;;;;16.65;10.90;;;;;;;;;;5030668;28;20049;-65
2022/11/28 10:09:32;;;;;;;16.23;11.07;;;8.50;99.90;;;;;;5037066;28;20376;-65
2022/11/28 10:12:26;;;;;;;15.65;11.00;;;8.60;99.90;;;;;;5034744;28;20544;-65
2022/11/28 10:15:05;;;;;;;15.10;10.18;;;8.60;99.90;;;;;;5035450;28;20060;-66
2022/11/28 10:18:02;;;;;;;18.15;11.50;;;8.60;99.90;;;;;;5034415;28;20064;-65
2022/11/28 10:20:32;;;;;;;15.65;11.20;;;8.60;99.90;;;;;;5035643;28;20115;-65
2022/11/28 10:23:05;;;;;;;16.98;10.88;;;8.70;99.90;;;;;;5035407;28;20621;-66
2022/11/28 10:25:37;;;;;;;15.50;9.95;;;8.60;99.90;;;;;;5035344;28;20124;-65
2022/11/28 10:28:05;;;;;;;14.98;11.15;;;8.60;99.90;;;;;;5035446;28;20046;-66
2022/11/28 10:30:38;;;;;;;17.10;9.40;;;8.70;99.90;;;;;;5034133;28;20042;-65
2022/11/28 10:33:24;;;;;;;15.80;10.02;;;8.60;99.90;;;;;;5036041;28;20049;-65
2022/11/28 10:35:57;;;;;;;16.52;10.85;;;8.60;99.90;;;;;;5034655;28;20048;-65
2022/11/28 10:38:26;;;;;;;12.68;8.93;;;8.60;99.90;;;;;;5035348;28;20049;-63
2022/11/28 10:41:11;;;;;;;14.10;9.38;;;8.60;99.90;;;;;;5035319;28;20085;-65
2022/11/28 10:44:09;;;;;;;12.05;9.07;;;8.50;99.90;;;;;;5033750;28;20045;-65
2022/11/28 10:46:41;;;;;;;14.63;8.98;;;8.60;99.90;;;;;;5023904;28;20064;-65
2022/11/28 10:49:32;;;;;;;14.38;9.63;;;8.70;99.90;;;;;;5033725;28;20056;-65
2022/11/28 10:52:09;;;;;;;14.82;8.88;;;8.70;99.90;;;;;;5034695;28;20112;-65
2022/11/28 10:54:52;;;;;;;13.23;9.02;;;8.60;99.90;;;;;;5048807;28;20509;-65
2022/11/28 10:57:38;;;;;;;13.02;9.43;;;8.60;99.90;;;;;;5053992;28;20106;-63
2022/11/28 11:00:18;;;;;;;11.02;8.23;;;8.60;99.90;;;;;;5054940;28;20037;-64
2022/11/28 11:02:49;;;;;;;13.68;8.65;;;8.70;99.90;;;;;;5053385;28;20037;-65
2022/11/28 11:05:19;;;;;;;13.38;8.93;;;8.90;99.90;;;;;;5054761;28;20037;-66
2022/11/28 11:07:53;;;;;;;14.10;8.95;;;8.70;99.90;;;;;;5054808;28;20125;-64
2022/11/28 11:10:22;;;;;;;13.13;9.00;;;8.70;99.90;;;;;;5052383;28;20063;-65
2022/11/28 11:12:51;;;;;;;12.80;8.82;;;8.80;99.90;;;;;;5053397;28;20119;-63
2022/11/28 11:15:31;;;;;;;14.23;8.75;;;8.70;99.90;;;;;;5053992;28;20040;-65
2022/11/28 11:17:59;;;;;;;11.93;8.77;;;8.70;99.90;;;;;;5050048;28;20049;-66
2022/11/28 11:20:32;;;;;;;10.38;8.38;;;8.60;99.90;;;;;;5038905;28;20087;-66
2022/11/28 11:23:20;;;;;;;12.23;8.80;;;8.70;99.90;;;;;;5035732;28;20053;-65
2022/11/28 11:25:48;;;;;;;11.73;8.50;;;8.60;99.90;;;;;;5036309;28;20037;-65
2022/11/28 11:28:43;;;;;;;13.23;8.43;;;8.60;99.90;;;;;;5034884;28;20045;-64
2022/11/28 11:31:25;;;;;;;10.45;8.00;;;8.70;99.90;;;;;;5042939;28;20411;-64
2022/11/28 11:34:00;;;;;;;11.75;8.18;;;8.90;99.90;;;;;;5035462;28;20038;-64
2022/11/28 11:36:28;;;;;;;10.23;7.15;;;;;;;;;;5035704;28;20073;-66
2022/11/28 11:39:11;;;;;;;11.45;7.95;;;8.70;99.90;;;;;;5043507;28;20399;-63
2022/11/28 11:41:56;;;;;;;12.07;7.88;;;8.80;99.90;;;;;;5035700;28;20099;-64
2022/11/28 11:44:33;;;;;;;10.95;7.80;;;8.90;99.90;;;;;;5036594;28;20049;-63
2022/11/28 11:47:05;;;;;;;10.98;7.85;;;8.80;99.90;;;;;;5037324;28;20069;-64
2022/11/28 11:49:37;;;;;;;10.77;8.27;;;8.90;99.90;;;;;;5033961;28;20053;-63
2022/11/28 11:52:03;;;;;;;10.70;7.43;;;;;;;;;;5053979;28;20068;-63
2022/11/28 11:54:29;;;;;;;12.40;7.20;;;8.90;99.90;;;;;;5021991;28;20076;-63
2022/11/28 11:56:56;;;;;;;11.52;7.80;;;8.90;99.90;;;;;;5052360;28;20041;-64
2022/11/28 11:59:44;;;;;;;10.90;7.32;;;9.00;99.90;;;;;;5041182;28;20128;-63
2022/11/28 12:02:47;;;;;;;10.90;7.78;;;8.80;99.90;;;;;;5033738;28;20037;-60
2022/11/28 12:05:19;;;;;;;12.43;8.82;;;8.90;99.90;;;;;;5051959;28;20048;-60
2022/11/28 12:08:01;;;;;;;12.38;8.40;;;9.10;99.90;;;;;;5052550;28;20124;-62
2022/11/28 12:10:33;;;;;;;15.50;9.40;;;8.80;99.90;;;;;;5053713;28;20029;-60
2022/11/28 12:13:00;;;;;;;13.73;9.52;;;8.90;99.90;;;;;;5053626;28;20040;-61
2022/11/28 12:15:31;;;;;;;11.93;8.48;;;8.90;99.90;;;;;;5047751;28;20036;-62
2022/11/28 12:18:02;;;;;;;14.02;8.25;;;;;;;;;;5035682;28;20107;-61
2022/11/28 12:20:35;;;;;;;16.20;8.85;;;;;;;;;;5044076;28;20068;-61
2022/11/28 12:23:00;;;;;;;15.35;9.73;;;8.90;99.90;;;;;;5044679;28;20043;-60
2022/11/28 12:25:35;;;;;;;12.10;8.45;;;8.90;99.90;;;;;;5044070;28;20037;-63
2022/11/28 12:28:10;;;;;;;14.88;9.57;;;8.90;99.90;;;;;;5032085;28;20135;-64
2022/11/28 12:31:00;;;;;;;14.20;9.10;;;8.80;99.90;;;;;;5031416;28;20456;-64
2022/11/28 12:34:02;;;;;;;14.60;9.23;;;8.90;99.90;;;;;;5040042;28;20041;-64
2022/11/28 12:36:53;;;;;;;14.20;9.68;;;9.00;99.90;;;;;;5031667;28;20049;-63
2022/11/28 12:39:50;;;;;;;14.68;9.35;;;8.90;99.90;;;;;;5031688;28;20052;-64
2022/11/28 12:42:46;;;;;;;17.23;10.20;;;9.00;99.90;;;;;;5031627;28;20052;-64
2022/11/28 12:45:49;;;;;;;15.18;9.43;;;8.90;99.90;;;;;;5033729;28;20047;-64
2022/11/28 12:48:45;;;;;;;16.55;10.60;;;8.90;99.90;;;;;;5032764;28;20049;-63
2022/11/28 12:51:39;;;;;;;14.32;9.82;;;8.90;99.90;;;;;;5047026;28;20045;-63
2022/11/28 12:54:15;;;;;;;19.33;10.38;;;;;;;;;;5051668;28;20083;-63
2022/11/28 12:56:49;;;;;;;;;;;8.90;99.90;;;;;;5048441;28;20037;-63
2022/11/28 12:59:33;;;;;;;14.82;9.48;;;8.90;99.90;;;;;;5042205;28;19999;-63
2022/11/28 13:02:17;;;;;;;14.90;10.20;;;9.00;99.90;;;;;;5051952;28;20065;-64
2022/11/28 13:05:12;;;;;;;15.02;9.90;;;9.00;99.90;;;;;;5048897;28;20529;-64
2022/11/28 13:07:52;;;;;;;16.80;11.02;;;9.00;99.90;;;;;;5050908;28;20060;-63
2022/11/28 13:10:41;;;;;;;18.17;11.15;;;9.00;99.90;;;;;;5052702;28;20368;-64